sensor_id;sensor_type;location;lat;lon;timestamp;pressure;altitude;pressure_sealevel;temperature;humidity
43770;BME280;6597;52.218;9.882;2024-03-25T00:01:28;99463.13;;;4.37;100.00
43770;BME280;6597;52.218;9.882;2024-03-25T00:03:55;99460.66;;;4.33;100.00
43770;BME280;6597;52.218;9.882;2024-03-25T00:06:22;99467.66;;;4.31;100.00
43770;BME280;6597;52.218;9.882;2024-03-25T00:08:47;99458.06;;;4.33;100.00
43770;BME280;6597;52.218;9.882;2024-03-25T00:11:14;99478.06;;;4.31;100.00
43770;BME280;6597;52.218;9.882;2024-03-25T00:13:40;99471.09;;;4.31;100.00
43770;BME280;6597;52.218;9.882;2024-03-25T00:16:07;99481.50;;;4.31;100.00
43770;BME280;6597;52.218;9.882;2024-03-25T00:18:32;99484.03;;;4.33;100.00
43770;BME280;6597;52.218;9.882;2024-03-25T00:21:00;99491.69;;;4.37;100.00
43770;BME280;6597;52.218;9.882;2024-03-25T00:23:26;99486.50;;;4.37;100.00
43770;BME280;6597;52.218;9.882;2024-03-25T00:25:53;99488.34;;;4.34;100.00
43770;BME280;6597;52.218;9.882;2024-03-25T00:28:19;99485.13;;;4.26;100.00
43770;BME280;6597;52.218;9.882;2024-03-25T00:30:45;99494.97;;;4.15;100.00
43770;BME280;6597;52.218;9.882;2024-03-25T00:33:11;99489.81;;;4.13;100.00
43770;BME280;6597;52.218;9.882;2024-03-25T00:35:38;99486.47;;;4.10;100.00
43770;BME280;6597;52.218;9.882;2024-03-25T00:38:05;99489.28;;;4.02;100.00
43770;BME280;6597;52.218;9.882;2024-03-25T00:40:32;99500.75;;;3.95;100.00
43770;BME280;6597;52.218;9.882;2024-03-25T00:42:59;99505.13;;;3.93;100.00
43770;BME280;6597;52.218;9.882;2024-03-25T00:45:26;99520.72;;;3.93;100.00
43770;BME280;6597;52.218;9.882;2024-03-25T00:47:56;99502.59;;;3.90;100.00
43770;BME280;6597;52.218;9.882;2024-03-25T00:50:22;99502.63;;;3.88;100.00
43770;BME280;6597;52.218;9.882;2024-03-25T00:52:48;99499.19;;;3.88;100.00
43770;BME280;6597;52.218;9.882;2024-03-25T00:55:16;99501.78;;;3.88;100.00
43770;BME280;6597;52.218;9.882;2024-03-25T00:57:42;99500.00;;;3.91;100.00
43770;BME280;6597;52.218;9.882;2024-03-25T01:00:10;99503.38;;;3.93;100.00
43770;BME280;6597;52.218;9.882;2024-03-25T01:02:36;99502.41;;;3.97;100.00
43770;BME280;6597;52.218;9.882;2024-03-25T01:05:03;99491.94;;;4.00;100.00
43770;BME280;6597;52.218;9.882;2024-03-25T01:07:30;99498.78;;;4.03;100.00
43770;BME280;6597;52.218;9.882;2024-03-25T01:09:57;99507.38;;;4.05;100.00
43770;BME280;6597;52.218;9.882;2024-03-25T01:12:25;99507.28;;;4.08;100.00
43770;BME280;6597;52.218;9.882;2024-03-25T01:14:52;99512.38;;;4.11;100.00
43770;BME280;6597;52.218;9.882;2024-03-25T01:17:18;99507.16;;;4.13;100.00
43770;BME280;6597;52.218;9.882;2024-03-25T01:19:45;99500.53;;;4.02;100.00
43770;BME280;6597;52.218;9.882;2024-03-25T01:22:11;99517.44;;;4.16;100.00
43770;BME280;6597;52.218;9.882;2024-03-25T01:24:37;99516.53;;;4.17;100.00
43770;BME280;6597;52.218;9.882;2024-03-25T01:27:04;99514.84;;;4.16;100.00
43770;BME280;6597;52.218;9.882;2024-03-25T01:29:32;99519.06;;;4.20;100.00
43770;BME280;6597;52.218;9.882;2024-03-25T01:31:58;99531.16;;;4.21;100.00
43770;BME280;6597;52.218;9.882;2024-03-25T01:34:25;99528.50;;;4.24;100.00
43770;BME280;6597;52.218;9.882;2024-03-25T01:36:51;99534.50;;;4.26;100.00
43770;BME280;6597;52.218;9.882;2024-03-25T01:39:18;99541.28;;;4.30;100.00
43770;BME280;6597;52.218;9.882;2024-03-25T01:41:43;99542.06;;;4.33;100.00
43770;BME280;6597;52.218;9.882;2024-03-25T01:44:10;99532.47;;;4.35;100.00
43770;BME280;6597;52.218;9.882;2024-03-25T01:46:38;99537.53;;;4.40;100.00
43770;BME280;6597;52.218;9.882;2024-03-25T01:49:06;99539.28;;;4.40;100.00
43770;BME280;6597;52.218;9.882;2024-03-25T01:51:32;99535.81;;;4.39;100.00
43770;BME280;6597;52.218;9.882;2024-03-25T01:54:01;99543.63;;;4.39;100.00
43770;BME280;6597;52.218;9.882;2024-03-25T01:56:29;99538.47;;;4.37;100.00
43770;BME280;6597;52.218;9.882;2024-03-25T01:58:58;99540.88;;;4.44;100.00
43770;BME280;6597;52.218;9.882;2024-03-25T02:01:24;99536.50;;;4.46;100.00
43770;BME280;6597;52.218;9.882;2024-03-25T02:03:53;99539.03;;;4.47;100.00
43770;BME280;6597;52.218;9.882;2024-03-25T02:06:19;99534.78;;;4.45;100.00
43770;BME280;6597;52.218;9.882;2024-03-25T02:08:48;99533.13;;;4.42;100.00
43770;BME280;6597;52.218;9.882;2024-03-25T02:11:14;99546.78;;;4.49;100.00
43770;BME280;6597;52.218;9.882;2024-03-25T02:13:41;99545.13;;;4.46;100.00
43770;BME280;6597;52.218;9.882;2024-03-25T02:16:07;99542.63;;;4.43;100.00
43770;BME280;6597;52.218;9.882;2024-03-25T02:18:34;99540.16;;;4.38;100.00
43770;BME280;6597;52.218;9.882;2024-03-25T02:21:02;99544.66;;;4.33;100.00
43770;BME280;6597;52.218;9.882;2024-03-25T02:23:30;99549.94;;;4.30;100.00
43770;BME280;6597;52.218;9.882;2024-03-25T02:25:58;99542.28;;;4.26;100.00
43770;BME280;6597;52.218;9.882;2024-03-25T02:28:25;99557.25;;;4.16;100.00
43770;BME280;6597;52.218;9.882;2024-03-25T02:30:51;99555.63;;;4.12;100.00
43770;BME280;6597;52.218;9.882;2024-03-25T02:33:17;99558.31;;;4.09;100.00
43770;BME280;6597;52.218;9.882;2024-03-25T02:35:43;99554.06;;;4.06;100.00
43770;BME280;6597;52.218;9.882;2024-03-25T02:38:11;99567.16;;;4.03;100.00
43770;BME280;6597;52.218;9.882;2024-03-25T02:40:37;99572.25;;;4.06;100.00
43770;BME280;6597;52.218;9.882;2024-03-25T02:43:05;99569.69;;;4.05;100.00
43770;BME280;6597;52.218;9.882;2024-03-25T02:45:33;99579.19;;;4.06;100.00
43770;BME280;6597;52.218;9.882;2024-03-25T02:47:59;99577.44;;;4.06;100.00
43770;BME280;6597;52.218;9.882;2024-03-25T02:50:25;99580.00;;;4.08;100.00
43770;BME280;6597;52.218;9.882;2024-03-25T02:52:52;99580.84;;;4.09;100.00
43770;BME280;6597;52.218;9.882;2024-03-25T02:55:18;99587.78;;;4.08;100.00
43770;BME280;6597;52.218;9.882;2024-03-25T02:57:44;99580.88;;;4.07;100.00
43770;BME280;6597;52.218;9.882;2024-03-25T03:00:13;99576.81;;;3.98;100.00
43770;BME280;6597;52.218;9.882;2024-03-25T03:02:39;99586.31;;;3.99;100.00
43770;BME280;6597;52.218;9.882;2024-03-25T03:05:05;99597.63;;;3.97;100.00
43770;BME280;6597;52.218;9.882;2024-03-25T03:07:32;99604.56;;;3.96;100.00
43770;BME280;6597;52.218;9.882;2024-03-25T03:09:58;99607.31;;;3.90;100.00
43770;BME280;6597;52.218;9.882;2024-03-25T03:12:24;99604.72;;;3.90;100.00
43770;BME280;6597;52.218;9.882;2024-03-25T03:14:50;99613.38;;;3.89;100.00
43770;BME280;6597;52.218;9.882;2024-03-25T03:17:18;99604.72;;;3.90;100.00
43770;BME280;6597;52.218;9.882;2024-03-25T03:19:45;99613.28;;;3.94;100.00
43770;BME280;6597;52.218;9.882;2024-03-25T03:22:12;99609.72;;;3.98;100.00
43770;BME280;6597;52.218;9.882;2024-03-25T03:24:37;99613.16;;;3.98;100.00
43770;BME280;6597;52.218;9.882;2024-03-25T03:27:04;99619.13;;;4.02;100.00
43770;BME280;6597;52.218;9.882;2024-03-25T03:29:30;99621.59;;;4.06;100.00
43770;BME280;6597;52.218;9.882;2024-03-25T03:31:57;99617.06;;;4.13;100.00
43770;BME280;6597;52.218;9.882;2024-03-25T03:34:24;99625.59;;;4.18;100.00
43770;BME280;6597;52.218;9.882;2024-03-25T03:36:51;99625.53;;;4.20;100.00
43770;BME280;6597;52.218;9.882;2024-03-25T03:39:17;99632.41;;;4.24;100.00
43770;BME280;6597;52.218;9.882;2024-03-25T03:41:44;99632.34;;;4.25;100.00
43770;BME280;6597;52.218;9.882;2024-03-25T03:44:10;99633.13;;;4.29;100.00
43770;BME280;6597;52.218;9.882;2024-03-25T03:46:37;99635.66;;;4.30;100.00
43770;BME280;6597;52.218;9.882;2024-03-25T03:49:03;99636.56;;;4.29;100.00
43770;BME280;6597;52.218;9.882;2024-03-25T03:51:31;99639.06;;;4.32;100.00
43770;BME280;6597;52.218;9.882;2024-03-25T03:53:57;99633.03;;;4.32;100.00
43770;BME280;6597;52.218;9.882;2024-03-25T03:56:24;99639.16;;;4.29;100.00
43770;BME280;6597;52.218;9.882;2024-03-25T03:58:49;99636.72;;;4.23;100.00
43770;BME280;6597;52.218;9.882;2024-03-25T04:01:17;99642.78;;;4.22;100.00
43770;BME280;6597;52.218;9.882;2024-03-25T04:03:43;99640.25;;;4.21;100.00
43770;BME280;6597;52.218;9.882;2024-03-25T04:06:10;99654.13;;;4.20;100.00
43770;BME280;6597;52.218;9.882;2024-03-25T04:08:38;99651.59;;;4.17;100.00
43770;BME280;6597;52.218;9.882;2024-03-25T04:11:05;99646.50;;;4.14;100.00
43770;BME280;6597;52.218;9.882;2024-03-25T04:13:32;99648.28;;;4.12;100.00
43770;BME280;6597;52.218;9.882;2024-03-25T04:16:01;99648.25;;;4.13;100.00
43770;BME280;6597;52.218;9.882;2024-03-25T04:18:28;99652.53;;;4.14;100.00
43770;BME280;6597;52.218;9.882;2024-03-25T04:20:55;99644.03;;;4.09;100.00
43770;BME280;6597;52.218;9.882;2024-03-25T04:23:20;99645.78;;;4.09;100.00
43770;BME280;6597;52.218;9.882;2024-03-25T04:25:48;99658.03;;;4.03;100.00
43770;BME280;6597;52.218;9.882;2024-03-25T04:28:14;99662.31;;;4.04;100.00
43770;BME280;6597;52.218;9.882;2024-03-25T04:30:41;99654.44;;;4.07;100.00
43770;BME280;6597;52.218;9.882;2024-03-25T04:33:07;99664.03;;;4.05;100.00
43770;BME280;6597;52.218;9.882;2024-03-25T04:35:35;99664.88;;;4.06;100.00
43770;BME280;6597;52.218;9.882;2024-03-25T04:38:00;99672.59;;;4.09;100.00
43770;BME280;6597;52.218;9.882;2024-03-25T04:40:26;99663.81;;;4.13;100.00
43770;BME280;6597;52.218;9.882;2024-03-25T04:42:53;99668.97;;;4.15;100.00
43770;BME280;6597;52.218;9.882;2024-03-25T04:45:19;99673.31;;;4.14;100.00
43770;BME280;6597;52.218;9.882;2024-03-25T04:47:45;99674.16;;;4.15;100.00
43770;BME280;6597;52.218;9.882;2024-03-25T04:50:11;99678.47;;;4.16;100.00
43770;BME280;6597;52.218;9.882;2024-03-25T04:52:36;99684.47;;;4.18;100.00
43770;BME280;6597;52.218;9.882;2024-03-25T04:55:03;99679.19;;;4.21;100.00
43770;BME280;6597;52.218;9.882;2024-03-25T04:57:28;99684.47;;;4.18;100.00
43770;BME280;6597;52.218;9.882;2024-03-25T04:59:55;99693.97;;;4.19;100.00
43770;BME280;6597;52.218;9.882;2024-03-25T05:02:21;99692.22;;;4.19;100.00
43770;BME280;6597;52.218;9.882;2024-03-25T05:04:47;99696.56;;;4.19;100.00
43770;BME280;6597;52.218;9.882;2024-03-25T05:07:13;99690.66;;;4.14;100.00
43770;BME280;6597;52.218;9.882;2024-03-25T05:09:38;99694.31;;;4.06;100.00
43770;BME280;6597;52.218;9.882;2024-03-25T05:12:04;99691.78;;;4.03;100.00
43770;BME280;6597;52.218;9.882;2024-03-25T05:14:30;99699.66;;;4.00;100.00
43770;BME280;6597;52.218;9.882;2024-03-25T05:16:57;99696.16;;;4.01;100.00
43770;BME280;6597;52.218;9.882;2024-03-25T05:19:23;99697.94;;;3.99;100.00
43770;BME280;6597;52.218;9.882;2024-03-25T05:21:49;99709.16;;;4.01;100.00
43770;BME280;6597;52.218;9.882;2024-03-25T05:24:15;99704.84;;;4.00;100.00
43770;BME280;6597;52.218;9.882;2024-03-25T05:26:41;99707.38;;;4.03;100.00
43770;BME280;6597;52.218;9.882;2024-03-25T05:29:06;99711.66;;;4.04;100.00
43770;BME280;6597;52.218;9.882;2024-03-25T05:31:32;99717.63;;;4.08;100.00
43770;BME280;6597;52.218;9.882;2024-03-25T05:33:59;99714.91;;;4.13;100.00
43770;BME280;6597;52.218;9.882;2024-03-25T05:36:25;99724.28;;;4.18;100.00
43770;BME280;6597;52.218;9.882;2024-03-25T05:38:51;99729.41;;;4.21;100.00
43770;BME280;6597;52.218;9.882;2024-03-25T05:41:17;99736.28;;;4.24;100.00
43770;BME280;6597;52.218;9.882;2024-03-25T05:43:43;99736.19;;;4.28;100.00
43770;BME280;6597;52.218;9.882;2024-03-25T05:46:08;99735.19;;;4.32;100.00
43770;BME280;6597;52.218;9.882;2024-03-25T05:48:34;99731.66;;;4.35;100.00
43770;BME280;6597;52.218;9.882;2024-03-25T05:51:02;99739.34;;;4.40;100.00
43770;BME280;6597;52.218;9.882;2024-03-25T05:53:28;99747.00;;;4.44;100.00
43770;BME280;6597;52.218;9.882;2024-03-25T05:55:55;99737.47;;;4.45;100.00
43770;BME280;6597;52.218;9.882;2024-03-25T05:58:21;99745.94;;;4.51;100.00
43770;BME280;6597;52.218;9.882;2024-03-25T06:00:47;99741.50;;;4.55;100.00
43770;BME280;6597;52.218;9.882;2024-03-25T06:03:13;99744.88;;;4.60;100.00
43770;BME280;6597;52.218;9.882;2024-03-25T06:05:40;99757.78;;;4.63;100.00
43770;BME280;6597;52.218;9.882;2024-03-25T06:08:07;99755.94;;;4.66;100.00
43770;BME280;6597;52.218;9.882;2024-03-25T06:10:37;99760.31;;;4.66;100.00
43770;BME280;6597;52.218;9.882;2024-03-25T06:13:03;99759.34;;;4.68;100.00
43770;BME280;6597;52.218;9.882;2024-03-25T06:15:29;99768.69;;;4.76;100.00
43770;BME280;6597;52.218;9.882;2024-03-25T06:17:54;99766.06;;;4.77;100.00
43770;BME280;6597;52.218;9.882;2024-03-25T06:20:20;99767.63;;;4.83;100.00
43770;BME280;6597;52.218;9.882;2024-03-25T06:22:46;99766.69;;;4.85;100.00
43770;BME280;6597;52.218;9.882;2024-03-25T06:25:13;99774.44;;;4.87;100.00
43770;BME280;6597;52.218;9.882;2024-03-25T06:27:39;99777.84;;;4.90;100.00
43770;BME280;6597;52.218;9.882;2024-03-25T06:30:06;99782.19;;;4.90;100.00
43770;BME280;6597;52.218;9.882;2024-03-25T06:32:51;99775.28;;;4.87;100.00
43770;BME280;6597;52.218;9.882;2024-03-25T06:35:35;99784.84;;;4.88;100.00
43770;BME280;6597;52.218;9.882;2024-03-25T06:38:01;99790.84;;;4.90;100.00
43770;BME280;6597;52.218;9.882;2024-03-25T06:40:28;99788.38;;;4.84;100.00
43770;BME280;6597;52.218;9.882;2024-03-25T06:42:53;99794.56;;;4.80;100.00
43770;BME280;6597;52.218;9.882;2024-03-25T06:45:19;99790.25;;;4.79;100.00
43770;BME280;6597;52.218;9.882;2024-03-25T06:47:45;99805.00;;;4.79;100.00
43770;BME280;6597;52.218;9.882;2024-03-25T06:50:13;99802.56;;;4.73;100.00
43770;BME280;6597;52.218;9.882;2024-03-25T06:52:39;99792.59;;;4.57;100.00
43770;BME280;6597;52.218;9.882;2024-03-25T06:55:05;99801.47;;;4.49;100.00
43770;BME280;6597;52.218;9.882;2024-03-25T06:57:33;99806.81;;;4.43;100.00
43770;BME280;6597;52.218;9.882;2024-03-25T06:59:58;99805.88;;;4.45;100.00
43770;BME280;6597;52.218;9.882;2024-03-25T07:02:24;99808.34;;;4.50;100.00
43770;BME280;6597;52.218;9.882;2024-03-25T07:04:50;99802.19;;;4.54;100.00
43770;BME280;6597;52.218;9.882;2024-03-25T07:07:17;99821.19;;;4.57;100.00
43770;BME280;6597;52.218;9.882;2024-03-25T07:09:43;99812.25;;;4.67;100.00
43770;BME280;6597;52.218;9.882;2024-03-25T07:12:09;99814.47;;;4.81;100.00
43770;BME280;6597;52.218;9.882;2024-03-25T07:14:36;99813.31;;;4.93;100.00
43770;BME280;6597;52.218;9.882;2024-03-25T07:17:02;99813.84;;;5.04;100.00
43770;BME280;6597;52.218;9.882;2024-03-25T07:19:28;99817.91;;;5.14;100.00
43770;BME280;6597;52.218;9.882;2024-03-25T07:21:54;99820.59;;;5.11;100.00
43770;BME280;6597;52.218;9.882;2024-03-25T07:24:19;99827.19;;;5.24;100.00
43770;BME280;6597;52.218;9.882;2024-03-25T07:26:45;99830.00;;;5.46;100.00
43770;BME280;6597;52.218;9.882;2024-03-25T07:29:11;99832.41;;;5.54;100.00
43770;BME280;6597;52.218;9.882;2024-03-25T07:31:38;99830.19;;;5.40;100.00
43770;BME280;6597;52.218;9.882;2024-03-25T07:34:04;99832.13;;;5.34;100.00
43770;BME280;6597;52.218;9.882;2024-03-25T07:36:30;99831.25;;;5.33;100.00
43770;BME280;6597;52.218;9.882;2024-03-25T07:38:55;99828.38;;;5.42;100.00
43770;BME280;6597;52.218;9.882;2024-03-25T07:41:21;99838.63;;;5.48;100.00
43770;BME280;6597;52.218;9.882;2024-03-25T07:43:47;99847.19;;;5.52;100.00
43770;BME280;6597;52.218;9.882;2024-03-25T07:46:12;99852.19;;;5.59;100.00
43770;BME280;6597;52.218;9.882;2024-03-25T07:48:40;99854.03;;;5.56;100.00
43770;BME280;6597;52.218;9.882;2024-03-25T07:51:05;99859.25;;;5.56;100.00
43770;BME280;6597;52.218;9.882;2024-03-25T07:53:31;99854.00;;;5.57;100.00
43770;BME280;6597;52.218;9.882;2024-03-25T07:55:57;99861.47;;;5.68;100.00
43770;BME280;6597;52.218;9.882;2024-03-25T07:58:22;99857.13;;;5.69;100.00
43770;BME280;6597;52.218;9.882;2024-03-25T08:00:48;99861.38;;;5.71;100.00
43770;BME280;6597;52.218;9.882;2024-03-25T08:03:14;99854.09;;;5.82;100.00
43770;BME280;6597;52.218;9.882;2024-03-25T08:05:41;99858.28;;;5.89;100.00
43770;BME280;6597;52.218;9.882;2024-03-25T08:08:07;99857.00;;;6.03;100.00
43770;BME280;6597;52.218;9.882;2024-03-25T08:10:33;99857.66;;;6.09;100.00
43770;BME280;6597;52.218;9.882;2024-03-25T08:12:59;99859.25;;;6.13;100.00
43770;BME280;6597;52.218;9.882;2024-03-25T08:15:24;99849.63;;;6.15;100.00
43770;BME280;6597;52.218;9.882;2024-03-25T08:17:50;99854.53;;;6.26;100.00
43770;BME280;6597;52.218;9.882;2024-03-25T08:20:16;99856.09;;;6.32;100.00
43770;BME280;6597;52.218;9.882;2024-03-25T08:22:43;99863.09;;;6.30;100.00
43770;BME280;6597;52.218;9.882;2024-03-25T08:25:09;99857.75;;;6.34;100.00
43770;BME280;6597;52.218;9.882;2024-03-25T08:27:34;99863.44;;;6.45;100.00
43770;BME280;6597;52.218;9.882;2024-03-25T08:30:00;99864.88;;;6.55;100.00
43770;BME280;6597;52.218;9.882;2024-03-25T08:32:26;99862.13;;;6.60;100.00
43770;BME280;6597;52.218;9.882;2024-03-25T08:34:52;99858.34;;;6.69;100.00
43770;BME280;6597;52.218;9.882;2024-03-25T08:37:17;99868.56;;;6.75;98.32
43770;BME280;6597;52.218;9.882;2024-03-25T08:39:44;99863.06;;;6.84;98.03
43770;BME280;6597;52.218;9.882;2024-03-25T08:42:10;99869.59;;;6.96;99.87
43770;BME280;6597;52.218;9.882;2024-03-25T08:44:36;99875.13;;;7.11;97.26
43770;BME280;6597;52.218;9.882;2024-03-25T08:47:02;99869.50;;;7.24;96.66
43770;BME280;6597;52.218;9.882;2024-03-25T08:49:27;99868.66;;;7.23;97.12
43770;BME280;6597;52.218;9.882;2024-03-25T08:51:53;99872.50;;;7.11;96.05
43770;BME280;6597;52.218;9.882;2024-03-25T08:54:19;99871.66;;;7.11;96.70
43770;BME280;6597;52.218;9.882;2024-03-25T08:56:46;99854.56;;;7.02;95.34
43770;BME280;6597;52.218;9.882;2024-03-25T08:59:12;99869.44;;;7.00;93.79
43770;BME280;6597;52.218;9.882;2024-03-25T09:01:37;99876.69;;;6.92;91.11
43770;BME280;6597;52.218;9.882;2024-03-25T09:04:03;99870.97;;;6.81;91.86
43770;BME280;6597;52.218;9.882;2024-03-25T09:06:29;99872.63;;;6.83;93.09
43770;BME280;6597;52.218;9.882;2024-03-25T09:08:55;99880.19;;;6.91;93.79
43770;BME280;6597;52.218;9.882;2024-03-25T09:11:39;99882.00;;;7.14;94.22
43770;BME280;6597;52.218;9.882;2024-03-25T09:14:06;99885.66;;;7.33;89.90
43770;BME280;6597;52.218;9.882;2024-03-25T09:16:32;99880.31;;;7.61;91.03
43770;BME280;6597;52.218;9.882;2024-03-25T09:18:58;99884.38;;;7.68;87.82
43770;BME280;6597;52.218;9.882;2024-03-25T09:21:24;99881.28;;;7.82;85.42
43770;BME280;6597;52.218;9.882;2024-03-25T09:23:49;99885.13;;;7.95;85.54
43770;BME280;6597;52.218;9.882;2024-03-25T09:26:15;99889.94;;;8.06;84.77
43770;BME280;6597;52.218;9.882;2024-03-25T09:28:41;99887.72;;;8.19;85.37
43770;BME280;6597;52.218;9.882;2024-03-25T09:31:08;99886.19;;;8.13;80.30
43770;BME280;6597;52.218;9.882;2024-03-25T09:33:34;99882.03;;;8.29;81.17
43770;BME280;6597;52.218;9.882;2024-03-25T09:36:00;99886.22;;;8.35;76.15
43770;BME280;6597;52.218;9.882;2024-03-25T09:38:25;99891.56;;;8.54;76.98
43770;BME280;6597;52.218;9.882;2024-03-25T09:40:52;99884.81;;;8.90;77.00
43770;BME280;6597;52.218;9.882;2024-03-25T09:43:23;99880.81;;;9.22;73.96
43770;BME280;6597;52.218;9.882;2024-03-25T09:45:49;99883.25;;;9.66;74.16
43770;BME280;6597;52.218;9.882;2024-03-25T09:48:18;99880.00;;;9.80;71.35
43770;BME280;6597;52.218;9.882;2024-03-25T09:50:45;99882.78;;;9.77;69.89
43770;BME280;6597;52.218;9.882;2024-03-25T09:53:11;99890.38;;;9.62;68.71
43770;BME280;6597;52.218;9.882;2024-03-25T09:55:37;99888.91;;;9.36;71.93
43770;BME280;6597;52.218;9.882;2024-03-25T09:58:04;99886.53;;;9.12;73.42
43770;BME280;6597;52.218;9.882;2024-03-25T10:00:30;99899.94;;;9.04;75.50
43770;BME280;6597;52.218;9.882;2024-03-25T10:02:56;99900.19;;;8.98;75.23
43770;BME280;6597;52.218;9.882;2024-03-25T10:05:23;99905.97;;;8.64;75.89
43770;BME280;6597;52.218;9.882;2024-03-25T10:07:49;99909.09;;;8.28;78.05
43770;BME280;6597;52.218;9.882;2024-03-25T10:10:19;99899.03;;;8.41;79.91
43770;BME280;6597;52.218;9.882;2024-03-25T10:12:45;99901.78;;;8.60;79.16
43770;BME280;6597;52.218;9.882;2024-03-25T10:15:15;99901.19;;;8.73;70.56
43770;BME280;6597;52.218;9.882;2024-03-25T10:17:41;99904.13;;;8.88;69.46
43770;BME280;6597;52.218;9.882;2024-03-25T10:20:13;99904.66;;;8.96;64.38
43770;BME280;6597;52.218;9.882;2024-03-25T10:22:42;99895.94;;;8.95;64.87
43770;BME280;6597;52.218;9.882;2024-03-25T10:25:19;99899.00;;;9.05;66.05
43770;BME280;6597;52.218;9.882;2024-03-25T10:27:52;99889.03;;;9.15;64.69
43770;BME280;6597;52.218;9.882;2024-03-25T10:30:19;99892.72;;;9.29;65.80
43770;BME280;6597;52.218;9.882;2024-03-25T10:32:45;99895.78;;;9.39;63.43
43770;BME280;6597;52.218;9.882;2024-03-25T10:35:11;99890.91;;;9.31;62.73
43770;BME280;6597;52.218;9.882;2024-03-25T10:37:38;99888.53;;;9.25;63.86
43770;BME280;6597;52.218;9.882;2024-03-25T10:40:07;99887.84;;;9.22;63.33
43770;BME280;6597;52.218;9.882;2024-03-25T10:42:36;99885.94;;;9.25;63.63
43770;BME280;6597;52.218;9.882;2024-03-25T10:45:05;99889.00;;;9.35;65.25
43770;BME280;6597;52.218;9.882;2024-03-25T10:47:34;99892.78;;;9.48;63.63
43770;BME280;6597;52.218;9.882;2024-03-25T10:50:05;99886.84;;;9.63;64.82
43770;BME280;6597;52.218;9.882;2024-03-25T10:52:33;99887.03;;;9.79;62.59
43770;BME280;6597;52.218;9.882;2024-03-25T10:55:00;99885.59;;;9.91;60.09
43770;BME280;6597;52.218;9.882;2024-03-25T10:57:28;99879.50;;;9.90;58.10
43770;BME280;6597;52.218;9.882;2024-03-25T10:59:55;99874.91;;;9.95;59.43
43770;BME280;6597;52.218;9.882;2024-03-25T11:02:21;99875.91;;;10.12;61.19
43770;BME280;6597;52.218;9.882;2024-03-25T11:04:47;99874.19;;;9.92;57.71
43770;BME280;6597;52.218;9.882;2024-03-25T11:07:14;99877.09;;;9.86;59.65
43770;BME280;6597;52.218;9.882;2024-03-25T11:09:41;99878.50;;;9.74;57.14
43770;BME280;6597;52.218;9.882;2024-03-25T11:12:09;99877.44;;;9.59;59.73
43770;BME280;6597;52.218;9.882;2024-03-25T11:14:36;99882.81;;;9.56;60.02
43770;BME280;6597;52.218;9.882;2024-03-25T11:17:02;99877.66;;;10.11;60.15
43770;BME280;6597;52.218;9.882;2024-03-25T11:19:29;99861.13;;;10.99;55.29
43770;BME280;6597;52.218;9.882;2024-03-25T11:22:08;99869.44;;;11.41;53.50
43770;BME280;6597;52.218;9.882;2024-03-25T11:24:34;99864.03;;;11.44;52.21
43770;BME280;6597;52.218;9.882;2024-03-25T11:27:01;99869.28;;;11.27;53.02
43770;BME280;6597;52.218;9.882;2024-03-25T11:29:27;99873.25;;;11.18;53.71
43770;BME280;6597;52.218;9.882;2024-03-25T11:31:55;99866.69;;;10.93;53.89
43770;BME280;6597;52.218;9.882;2024-03-25T11:34:24;99872.16;;;10.71;54.20
43770;BME280;6597;52.218;9.882;2024-03-25T11:36:50;99866.44;;;10.45;54.44
43770;BME280;6597;52.218;9.882;2024-03-25T11:39:16;99865.16;;;10.35;54.87
43770;BME280;6597;52.218;9.882;2024-03-25T11:41:42;99859.59;;;10.24;54.92
43770;BME280;6597;52.218;9.882;2024-03-25T11:44:09;99858.25;;;10.15;56.54
43770;BME280;6597;52.218;9.882;2024-03-25T11:46:36;99856.75;;;10.10;57.53
43770;BME280;6597;52.218;9.882;2024-03-25T11:49:05;99857.69;;;10.09;58.59
43770;BME280;6597;52.218;9.882;2024-03-25T11:51:31;99857.88;;;10.04;57.45
43770;BME280;6597;52.218;9.882;2024-03-25T11:53:58;99857.09;;;10.02;58.45
43770;BME280;6597;52.218;9.882;2024-03-25T11:56:24;99855.13;;;9.88;58.14
43770;BME280;6597;52.218;9.882;2024-03-25T11:58:51;99859.13;;;9.78;59.96
43770;BME280;6597;52.218;9.882;2024-03-25T12:01:17;99857.53;;;9.74;59.26
43770;BME280;6597;52.218;9.882;2024-03-25T12:03:43;99857.88;;;9.66;61.95
43770;BME280;6597;52.218;9.882;2024-03-25T12:06:10;99856.25;;;9.64;62.23
43770;BME280;6597;52.218;9.882;2024-03-25T12:08:36;99853.06;;;9.57;63.15
43770;BME280;6597;52.218;9.882;2024-03-25T12:11:02;99860.44;;;9.49;61.62
43770;BME280;6597;52.218;9.882;2024-03-25T12:13:43;99856.72;;;9.34;62.66
43770;BME280;6597;52.218;9.882;2024-03-25T12:16:09;99853.25;;;9.34;64.84
43770;BME280;6597;52.218;9.882;2024-03-25T12:18:36;99846.81;;;9.41;65.05
43770;BME280;6597;52.218;9.882;2024-03-25T12:21:04;99851.78;;;9.47;65.09
43770;BME280;6597;52.218;9.882;2024-03-25T12:23:32;99848.81;;;9.55;64.06
43770;BME280;6597;52.218;9.882;2024-03-25T12:25:58;99842.16;;;9.66;64.34
43770;BME280;6597;52.218;9.882;2024-03-25T12:28:24;99841.53;;;9.61;65.55
43770;BME280;6597;52.218;9.882;2024-03-25T12:30:51;99839.19;;;9.74;64.55
43770;BME280;6597;52.218;9.882;2024-03-25T12:33:17;99838.69;;;9.66;62.46
43770;BME280;6597;52.218;9.882;2024-03-25T12:35:45;99836.84;;;9.68;62.80
43770;BME280;6597;52.218;9.882;2024-03-25T12:38:22;99835.38;;;9.62;63.74
43770;BME280;6597;52.218;9.882;2024-03-25T12:40:49;99842.22;;;9.65;63.38
43770;BME280;6597;52.218;9.882;2024-03-25T12:43:15;99833.00;;;9.75;63.22
43770;BME280;6597;52.218;9.882;2024-03-25T12:45:41;99831.47;;;9.71;63.91
43770;BME280;6597;52.218;9.882;2024-03-25T12:48:07;99835.72;;;9.74;61.61
43770;BME280;6597;52.218;9.882;2024-03-25T12:50:33;99826.94;;;9.75;61.10
43770;BME280;6597;52.218;9.882;2024-03-25T12:52:58;99819.66;;;9.81;62.75
43770;BME280;6597;52.218;9.882;2024-03-25T12:55:24;99815.44;;;9.96;63.01
43770;BME280;6597;52.218;9.882;2024-03-25T12:57:51;99813.66;;;10.15;62.69
43770;BME280;6597;52.218;9.882;2024-03-25T13:00:17;99812.59;;;10.19;59.99
43770;BME280;6597;52.218;9.882;2024-03-25T13:02:44;99810.63;;;10.24;59.08
43770;BME280;6597;52.218;9.882;2024-03-25T13:05:09;99813.16;;;10.26;61.13
43770;BME280;6597;52.218;9.882;2024-03-25T13:07:35;99809.84;;;10.22;59.98
43770;BME280;6597;52.218;9.882;2024-03-25T13:10:01;99812.00;;;10.32;59.44
43770;BME280;6597;52.218;9.882;2024-03-25T13:12:27;99818.53;;;10.42;58.56